Aérodrome :
LOGIN :

S'inscrire | Disclaimer

   EN    FR    IT 

 










Légende :    VFR   VFR Marginal   IFR   IFR Intensif   IFR Très Intensif
Visi : 
Plafond : 
>= 8 km
>= 3000ft
5 à 8 km
1000 à 3000 ft
1500m à 5 km
500 à 1000 ft
800 à 1500m
200 à 500 ft
< 800m
< 200 ft
Symboles :   Orages  Brouillard  Fortes neiges  Fortes précipitations  Vent > 20 kt
SIGMETs :   Divers  Orages  Givrage  Turbulence  Onde Orograph.  Cendres Volcan.






- Altitude de l'aérodrome : 83 ft
- Code IATA : LHR


EGLL - London Heathrow

DERNIER METAR :
  • 152050Z AUTO 21012KT 180V250 9999 -RA SCT020/// BKN027/// BKN034/// //////TCU 07/06 Q0999 RESHRA

METARs EXPIRÉS :
  • 152020Z AUTO 21011KT 180V250 9999 -RA BKN038/// //////CB 08/05 Q0999 TEMPO 4000 SHRA
  • 151950Z AUTO 20012KT 9999 //////CB 08/05 Q0999 TEMPO 4000 SHRA
  • 151920Z AUTO 19008KT 160V240 9999 SCT029/// SCT043/// //////TCU 07/05 Q0999 RESHRA TEMPO 4000 SHRA
  • 151850Z 22009KT 190V250 9999 SHRA FEW024 BKN034 BKN046 08/06 Q0999
  • 151820Z AUTO 21011KT 180V250 9999 -RA FEW034 SCT047 08/05 Q0999 TEMPO SHRA

TAF TAF EGLL
Valide du 15 à 18h jusqu'au 17 à 00h UTC


151655Z 1518/1624 23012KT 9999 SCT030
TEMPO 1518/1602 7000 SHRA
PROB30
TEMPO 1519/1524 21016G26KT 3000 +SHRA BKN014
BECMG 1614/1617 12006KT
PROB30 1618/1621 6000
PROB30
TEMPO 1621/1624 6000 -RA BKN014



MET'MAP, la Météo Aéronautique d'un coup d'oeil ! - Copyright ORBIFLY Décembre 2007 - Disclaimer

ORBIFLY MET'MAP TEAM :

Programmation & Développement : Alexandra Zaïnal
Sur une idée originale de : Baudouin d'Aumeries
Assistance à la programmation : Marc-Olivier Méhu
Soutien technique & logistique : Manuel Goepfert

Contact : metmap@orbifly.com




SOURCES & CREDITS :

   NOAA